Time;durP1;ratioP1;P1;durP2;ratioP2;P2;SDS_P1;SDS_P2;PMS_P1;PMS_P2;Temp;Humidity;BMP_temperature;BMP_pressure;BME280_temperature;BME280_humidity;BME280_pressure;Samples;Min_cycle;Max_cycle;Signal;HPM_P1;HPM_P2
2023/01/21 00:02:12;;;;;;;11.40;8.40;;;4.80;99.90;;;;;;5051760;28;20214;-71
2023/01/21 00:04:37;;;;;;;10.07;7.33;;;4.80;99.90;;;;;;5050678;28;20814;-72
2023/01/21 00:07:04;;;;;;;9.60;7.33;;;4.80;99.90;;;;;;5050556;28;20433;-72
2023/01/21 00:09:30;;;;;;;11.60;8.40;;;4.80;99.90;;;;;;5050967;28;20232;-72
2023/01/21 00:11:57;;;;;;;13.13;8.60;;;4.90;99.90;;;;;;5046631;28;20445;-72
2023/01/21 00:14:22;;;;;;;12.40;8.47;;;4.90;99.90;;;;;;5050692;28;20202;-73
2023/01/21 00:16:48;;;;;;;11.70;8.47;;;4.90;99.90;;;;;;5044580;28;20444;-72
2023/01/21 00:19:14;;;;;;;11.90;9.07;;;4.90;99.90;;;;;;5050078;28;20532;-72
2023/01/21 00:21:39;;;;;;;14.17;9.87;;;4.90;99.90;;;;;;5048954;28;20210;-72
2023/01/21 00:24:05;;;;;;;11.33;8.97;;;4.90;99.90;;;;;;5047960;28;20183;-70
2023/01/21 00:26:33;;;;;;;15.87;8.33;;;4.90;99.90;;;;;;5051094;28;20180;-70
2023/01/21 00:28:59;;;;;;;11.10;8.70;;;4.90;99.90;;;;;;5040800;28;20205;-69
2023/01/21 00:31:25;;;;;;;10.27;8.03;;;4.90;99.90;;;;;;5050526;28;21025;-70
2023/01/21 00:33:50;;;;;;;9.07;7.33;;;4.90;99.90;;;;;;5052315;28;20222;-70
2023/01/21 00:36:17;;;;;;;8.23;6.30;;;4.80;99.90;;;;;;5044016;28;20245;-69
2023/01/21 00:38:43;;;;;;;7.00;5.70;;;4.70;99.90;;;;;;5048180;28;20669;-70
2023/01/21 00:41:11;;;;;;;13.97;6.50;;;4.70;99.90;;;;;;5038737;28;20549;-70
2023/01/21 00:43:38;;;;;;;8.67;5.60;;;4.80;99.90;;;;;;5046854;28;20491;-71
2023/01/21 00:46:04;;;;;;;10.63;5.73;;;4.80;99.90;;;;;;5042255;28;21339;-69
2023/01/21 00:48:30;;;;;;;11.03;6.20;;;4.70;99.90;;;;;;5050469;28;20464;-71
2023/01/21 00:50:59;;;;;;;6.77;5.90;;;4.70;99.90;;;;;;5039962;28;22061;-71
2023/01/21 00:53:32;;;;;;;7.03;6.30;;;4.70;99.90;;;;;;5043130;28;21211;-71
2023/01/21 00:56:01;;;;;;;6.80;5.50;;;4.70;99.90;;;;;;5042256;28;20436;-71
2023/01/21 00:58:27;;;;;;;8.90;6.43;;;4.60;99.90;;;;;;5046965;28;20948;-71
2023/01/21 01:01:13;;;;;;;9.20;7.00;;;4.70;99.90;;;;;;5039279;28;20452;-71
2023/01/21 01:03:40;;;;;;;13.03;6.90;;;4.60;99.90;;;;;;5043776;28;20437;-71
2023/01/21 01:06:12;;;;;;;8.37;6.57;;;4.60;99.90;;;;;;5040965;28;21036;-71
2023/01/21 01:08:38;;;;;;;10.40;7.30;;;4.60;99.90;;;;;;5045528;28;20437;-70
2023/01/21 01:11:04;;;;;;;8.60;6.87;;;4.60;99.90;;;;;;5044255;28;20994;-71
2023/01/21 01:13:32;;;;;;;9.30;6.93;;;4.60;99.90;;;;;;5046642;28;20199;-71
2023/01/21 01:15:58;;;;;;;9.60;7.43;;;4.60;99.90;;;;;;5041691;28;21236;-70
2023/01/21 01:18:25;;;;;;;10.97;7.23;;;4.60;99.90;;;;;;5049552;28;20497;-71
2023/01/21 01:20:51;;;;;;;10.20;7.87;;;4.60;99.90;;;;;;5046554;28;20514;-70
2023/01/21 01:23:17;;;;;;;10.00;7.37;;;4.60;99.90;;;;;;5051088;28;20578;-71
2023/01/21 01:25:42;;;;;;;10.87;8.00;;;4.60;99.90;;;;;;5046057;28;20286;-70
2023/01/21 01:28:08;;;;;;;10.67;8.43;;;4.60;99.90;;;;;;5041601;28;20210;-70
2023/01/21 01:30:34;;;;;;;10.77;8.00;;;4.60;99.90;;;;;;5052821;28;20262;-70
2023/01/21 01:33:00;;;;;;;11.30;7.77;;;4.60;99.90;;;;;;5048524;28;20199;-70
2023/01/21 01:35:26;;;;;;;9.60;7.13;;;4.50;99.90;;;;;;5054711;28;20559;-70
2023/01/21 01:37:53;;;;;;;9.30;7.50;;;4.50;99.90;;;;;;5050953;28;20517;-71
2023/01/21 01:40:19;;;;;;;10.57;7.63;;;4.50;99.90;;;;;;5052632;28;20439;-71
2023/01/21 01:42:45;;;;;;;11.10;8.40;;;4.50;99.90;;;;;;5050929;28;20460;-71
2023/01/21 01:45:20;;;;;;;10.67;9.60;;;4.50;99.90;;;;;;5041573;28;20444;-72
2023/01/21 01:47:57;;;;;;;11.20;9.00;;;4.50;99.90;;;;;;5050479;28;20190;-71
2023/01/21 01:50:25;;;;;;;9.50;7.83;;;4.50;99.90;;;;;;5056714;28;20425;-71
2023/01/21 01:52:51;;;;;;;14.03;8.80;;;4.40;99.90;;;;;;5049244;28;20512;-71
2023/01/21 01:55:17;;;;;;;14.10;9.53;;;4.40;99.90;;;;;;5052540;28;20429;-72
2023/01/21 01:57:48;;;;;;;12.27;8.77;;;4.30;99.90;;;;;;5048501;28;20467;-73
2023/01/21 02:00:15;;;;;;;12.23;8.77;;;4.30;99.90;;;;;;5044530;28;20298;-73
2023/01/21 02:02:42;;;;;;;13.77;8.77;;;4.20;99.90;;;;;;5046241;28;20441;-70
2023/01/21 02:05:09;;;;;;;11.87;9.10;;;4.30;99.90;;;;;;5043220;28;21928;-70
2023/01/21 02:07:38;;;;;;;10.90;8.83;;;4.30;99.90;;;;;;5061136;28;20557;-70
2023/01/21 02:10:09;;;;;;;12.90;9.50;;;4.30;99.90;;;;;;5042485;28;20436;-72
2023/01/21 02:12:36;;;;;;;13.10;9.07;;;4.30;99.90;;;;;;5049163;28;20465;-72
2023/01/21 02:15:03;;;;;;;16.07;8.83;;;4.30;99.90;;;;;;5050363;28;20952;-71
2023/01/21 02:17:41;;;;;;;10.60;7.90;;;4.30;99.90;;;;;;5048981;28;20430;-71
2023/01/21 02:20:37;;;;;;;10.83;8.70;;;4.30;99.90;;;;;;5044452;28;20429;-71
2023/01/21 02:23:06;;;;;;;13.40;9.33;;;4.20;99.90;;;;;;5052877;28;20427;-72
2023/01/21 02:25:34;;;;;;;11.67;9.20;;;4.10;99.90;;;;;;5049030;28;22372;-72
2023/01/21 02:28:21;;;;;;;11.40;8.80;;;4.10;99.90;;;;;;5044666;28;20476;-72
2023/01/21 02:31:14;;;;;;;9.27;8.00;;;4.10;99.90;;;;;;5040002;28;20545;-71
2023/01/21 02:33:59;;;;;;;11.77;9.50;;;4.10;99.90;;;;;;5043078;28;21006;-73
2023/01/21 02:36:46;;;;;;;12.33;8.20;;;4.10;99.90;;;;;;5044341;28;20467;-70
2023/01/21 02:39:31;;;;;;;11.17;8.70;;;4.00;99.90;;;;;;5042518;28;21164;-72
2023/01/21 02:42:05;;;;;;;12.77;9.80;;;4.00;99.90;;;;;;5039953;28;20461;-71
2023/01/21 02:44:37;;;;;;;13.30;9.20;;;4.00;99.90;;;;;;5043527;28;20982;-71
2023/01/21 02:47:39;;;;;;;12.87;8.40;;;4.00;99.90;;;;;;5042304;28;20433;-70
2023/01/21 02:50:16;;;;;;;12.83;9.67;;;4.00;99.90;;;;;;5045485;28;20433;-72
2023/01/21 02:52:42;;;;;;;12.97;8.90;;;4.00;99.90;;;;;;5048727;28;20469;-73
2023/01/21 02:55:18;;;;;;;11.73;8.90;;;4.00;99.90;;;;;;5042509;28;20968;-72
2023/01/21 02:57:52;;;;;;;12.47;9.40;;;3.90;99.90;;;;;;5047273;28;20183;-72
2023/01/21 03:00:30;;;;;;;12.87;9.40;;;3.90;99.90;;;;;;5043474;28;20511;-72
2023/01/21 03:03:10;;;;;;;13.37;8.97;;;3.90;99.90;;;;;;5043071;28;20468;-71
2023/01/21 03:05:57;;;;;;;12.70;9.47;;;3.80;99.90;;;;;;5041216;28;21027;-72
2023/01/21 03:08:44;;;;;;;12.53;9.50;;;3.80;99.90;;;;;;5046226;28;20919;-72
2023/01/21 03:11:18;;;;;;;11.73;8.90;;;3.80;99.90;;;;;;5049940;28;21154;-73
2023/01/21 03:16:56;;;;;;;12.00;9.70;;;3.70;99.90;;;;;;5051056;28;20486;-71
2023/01/21 03:19:55;;;;;;;12.37;9.13;;;3.70;99.90;;;;;;5051330;28;20448;-71
2023/01/21 03:22:27;;;;;;;11.30;8.43;;;3.60;99.90;;;;;;5050214;28;21236;-71
2023/01/21 03:24:54;;;;;;;9.97;8.43;;;3.60;99.90;;;;;;5049678;28;20433;-71
2023/01/21 03:27:23;;;;;;;21.47;9.87;;;3.50;99.90;;;;;;5051187;28;20429;-72
2023/01/21 03:29:53;;;;;;;10.40;8.87;;;3.50;99.90;;;;;;5052966;28;20537;-69
2023/01/21 03:32:22;;;;;;;12.07;8.77;;;3.50;99.90;;;;;;5051322;28;20453;-72
2023/01/21 03:34:51;;;;;;;9.90;8.53;;;3.40;99.90;;;;;;5052293;28;20409;-72
2023/01/21 03:37:29;;;;;;;16.20;9.60;;;3.30;99.90;;;;;;5053391;28;20414;-71
2023/01/21 03:40:13;;;;;;;14.30;9.57;;;3.30;99.90;;;;;;5045980;28;20429;-73
2023/01/21 03:42:39;;;;;;;13.10;9.60;;;3.30;99.90;;;;;;5045284;28;21188;-71
2023/01/21 03:45:06;;;;;;;17.67;8.97;;;3.30;99.90;;;;;;5038452;28;20429;-70
2023/01/21 03:47:35;;;;;;;12.93;9.37;;;3.30;99.90;;;;;;5044615;28;20433;-70
2023/01/21 03:50:07;;;;;;;10.93;8.77;;;3.20;99.90;;;;;;5046877;28;20527;-69
2023/01/21 03:52:34;;;;;;;11.20;9.27;;;3.20;99.90;;;;;;5040638;28;20533;-72
2023/01/21 03:55:00;;;;;;;11.13;9.03;;;3.20;99.90;;;;;;5036264;28;20541;-74
2023/01/21 03:57:26;;;;;;;10.90;9.10;;;3.20;99.90;;;;;;5044495;28;20437;-71
2023/01/21 03:59:52;;;;;;;12.13;8.90;;;3.10;99.90;;;;;;5044327;28;20444;-74
2023/01/21 04:02:19;;;;;;;13.70;9.03;;;3.10;99.90;;;;;;5037316;28;22417;-71
2023/01/21 04:04:45;;;;;;;12.33;9.00;;;3.10;99.90;;;;;;5043077;28;20445;-70
2023/01/21 04:07:12;;;;;;;13.33;9.83;;;3.10;99.90;;;;;;5040729;28;20456;-71
2023/01/21 04:09:37;;;;;;;14.27;9.00;;;3.00;99.90;;;;;;5041588;28;20964;-71
2023/01/21 04:12:03;;;;;;;12.20;8.30;;;3.00;99.90;;;;;;5047186;28;20453;-71
2023/01/21 04:14:29;;;;;;;12.40;9.37;;;3.00;99.90;;;;;;5044482;28;20202;-70
2023/01/21 04:16:54;;;;;;;14.77;9.23;;;2.90;99.90;;;;;;5045304;28;20282;-69
2023/01/21 04:19:20;;;;;;;13.93;10.47;;;2.90;99.90;;;;;;5051331;28;20181;-68
2023/01/21 04:21:46;;;;;;;15.60;9.00;;;2.90;99.90;;;;;;5051198;28;20252;-69
2023/01/21 04:24:11;;;;;;;28.40;10.80;;;2.90;99.90;;;;;;5044577;28;20442;-69
2023/01/21 04:26:37;;;;;;;13.87;9.93;;;2.90;99.90;;;;;;5043628;28;20183;-71
2023/01/21 04:29:03;;;;;;;13.40;9.43;;;2.90;99.90;;;;;;5043522;28;20179;-71
2023/01/21 04:31:28;;;;;;;10.13;7.97;;;2.90;99.90;;;;;;5047182;28;20206;-69
2023/01/21 04:33:54;;;;;;;13.50;9.70;;;2.80;99.90;;;;;;5042385;28;20288;-71
2023/01/21 04:36:19;;;;;;;13.20;9.43;;;2.80;99.90;;;;;;5048481;28;20183;-71
2023/01/21 04:38:45;;;;;;;14.10;8.50;;;2.90;99.90;;;;;;5051635;28;20175;-71
2023/01/21 04:41:10;;;;;;;12.60;8.40;;;2.90;99.90;;;;;;5047162;28;20230;-71
2023/01/21 04:43:36;;;;;;;14.13;9.70;;;2.90;99.90;;;;;;5046993;28;20186;-71
2023/01/21 04:46:01;;;;;;;14.17;9.60;;;2.90;99.90;;;;;;5045321;28;20209;-71
2023/01/21 04:48:27;;;;;;;13.37;9.00;;;2.90;99.90;;;;;;5048116;28;20184;-71
2023/01/21 04:50:53;;;;;;;14.50;8.87;;;3.00;99.90;;;;;;5051033;28;20632;-70
2023/01/21 04:53:18;;;;;;;13.60;9.17;;;2.90;99.90;;;;;;5050889;28;20206;-70
2023/01/21 04:55:44;;;;;;;15.70;9.33;;;2.90;99.90;;;;;;5052249;28;20717;-71
2023/01/21 04:58:09;;;;;;;11.20;9.10;;;2.90;99.90;;;;;;5047055;28;20180;-71
2023/01/21 05:00:35;;;;;;;12.23;8.37;;;3.00;99.90;;;;;;5052836;28;20882;-71
2023/01/21 05:03:00;;;;;;;11.27;7.73;;;3.00;99.90;;;;;;5047544;28;20592;-70
2023/01/21 05:05:26;;;;;;;10.73;8.53;;;3.00;99.90;;;;;;5053677;28;20190;-69
2023/01/21 05:07:53;;;;;;;14.50;8.97;;;3.00;99.90;;;;;;5046898;28;20352;-71
2023/01/21 05:10:18;;;;;;;13.50;8.60;;;3.10;99.90;;;;;;5052785;28;20721;-71
2023/01/21 05:12:44;;;;;;;15.60;9.63;;;3.00;99.90;;;;;;5053352;28;20468;-70
2023/01/21 05:15:10;;;;;;;11.33;9.30;;;3.00;99.90;;;;;;5050830;28;20422;-70
2023/01/21 05:17:36;;;;;;;15.00;9.13;;;3.10;99.90;;;;;;5049025;28;20191;-70
2023/01/21 05:20:02;;;;;;;11.73;10.00;;;3.00;99.90;;;;;;5044681;28;20441;-71
2023/01/21 05:22:28;;;;;;;14.50;11.20;;;3.00;99.90;;;;;;5049188;28;20234;-70
2023/01/21 05:24:53;;;;;;;17.60;11.60;;;3.00;99.90;;;;;;5049224;28;20453;-70
2023/01/21 05:27:20;;;;;;;14.83;11.67;;;3.00;99.90;;;;;;5052260;28;20261;-70
2023/01/21 05:29:46;;;;;;;14.13;12.57;;;2.90;99.90;;;;;;5053393;28;20183;-68
2023/01/21 05:32:12;;;;;;;16.23;12.73;;;2.90;99.90;;;;;;5047273;28;20457;-69
2023/01/21 05:34:38;;;;;;;16.30;13.23;;;2.80;99.90;;;;;;5053026;28;20568;-70
2023/01/21 05:37:03;;;;;;;15.90;12.40;;;2.80;99.90;;;;;;5050364;28;20674;-71
2023/01/21 05:39:29;;;;;;;21.73;14.20;;;2.80;99.90;;;;;;5050816;28;20175;-71
2023/01/21 05:41:54;;;;;;;19.17;13.50;;;2.80;99.90;;;;;;5053215;28;20223;-72
2023/01/21 05:44:20;;;;;;;18.27;13.00;;;2.80;99.90;;;;;;5050328;28;20191;-72
2023/01/21 05:46:46;;;;;;;22.33;13.73;;;2.70;99.90;;;;;;5045689;28;20192;-72
2023/01/21 05:49:11;;;;;;;19.93;13.73;;;2.70;99.90;;;;;;5047505;28;20276;-72
2023/01/21 05:51:37;;;;;;;22.00;15.97;;;2.70;99.90;;;;;;5048968;28;20231;-72
2023/01/21 05:54:03;;;;;;;22.10;14.40;;;2.60;99.90;;;;;;5048712;28;20203;-72
2023/01/21 05:56:28;;;;;;;20.27;15.53;;;2.60;99.90;;;;;;5053058;28;20179;-70
2023/01/21 05:58:54;;;;;;;25.73;18.10;;;2.60;99.90;;;;;;5050547;28;20706;-71
2023/01/21 06:01:19;;;;;;;26.07;18.90;;;2.60;99.90;;;;;;5049699;28;20198;-70
2023/01/21 06:03:45;;;;;;;29.13;17.37;;;2.60;99.90;;;;;;5051175;28;20988;-71
2023/01/21 06:06:10;;;;;;;25.47;17.63;;;2.50;99.90;;;;;;5047735;28;20191;-71
2023/01/21 06:08:36;;;;;;;29.37;19.50;;;2.50;99.90;;;;;;5053043;28;20191;-71
2023/01/21 06:11:01;;;;;;;29.47;18.90;;;2.40;99.90;;;;;;5046536;28;20203;-71
2023/01/21 06:13:27;;;;;;;33.57;19.40;;;2.20;99.90;;;;;;5050601;28;20285;-71
2023/01/21 06:15:57;;;;;;;29.23;19.50;;;2.10;99.90;;;;;;5046871;28;20199;-70
2023/01/21 06:18:23;;;;;;;30.73;20.63;;;2.00;99.90;;;;;;5051042;28;20290;-69
2023/01/21 06:20:48;;;;;;;28.70;18.57;;;1.80;99.90;;;;;;5053685;28;20449;-70
2023/01/21 06:23:14;;;;;;;29.13;17.37;;;1.80;99.90;;;;;;5049098;28;20520;-71
2023/01/21 06:25:42;;;;;;;33.30;18.50;;;1.80;99.90;;;;;;5055139;28;20179;-71
2023/01/21 06:28:11;;;;;;;30.80;18.73;;;1.80;99.90;;;;;;5054491;28;20645;-70
2023/01/21 06:30:36;;;;;;;30.13;18.33;;;1.80;99.90;;;;;;5054539;28;20509;-70
2023/01/21 06:33:02;;;;;;;26.23;16.30;;;1.70;99.90;;;;;;5051060;28;20472;-70
2023/01/21 06:35:28;;;;;;;24.77;16.00;;;1.60;99.90;;;;;;5053727;28;20170;-70
2023/01/21 06:37:53;;;;;;;29.03;16.87;;;1.60;99.90;;;;;;5054982;28;20221;-70
2023/01/21 06:40:23;;;;;;;24.50;15.33;;;1.60;99.90;;;;;;5054794;28;20183;-71
2023/01/21 06:42:49;;;;;;;23.20;14.90;;;1.60;99.90;;;;;;5050169;28;20203;-71
2023/01/21 06:45:15;;;;;;;23.37;15.00;;;1.50;99.90;;;;;;5051848;28;20524;-70
2023/01/21 06:47:45;;;;;;;20.00;13.07;;;1.60;99.90;;;;;;5053187;28;20195;-69
2023/01/21 06:50:13;;;;;;;24.53;15.47;;;1.60;99.90;;;;;;5050687;28;20460;-70
2023/01/21 06:52:44;;;;;;;28.83;14.27;;;1.50;99.90;;;;;;5054201;28;21123;-72
2023/01/21 06:55:10;;;;;;;23.20;13.67;;;1.60;99.90;;;;;;5046137;28;20416;-70
2023/01/21 06:57:37;;;;;;;20.90;13.10;;;1.60;99.90;;;;;;5052273;28;20517;-71
2023/01/21 07:00:04;;;;;;;24.20;12.27;;;1.50;99.90;;;;;;5049201;28;20433;-70
2023/01/21 07:02:29;;;;;;;23.10;13.73;;;1.60;99.90;;;;;;5050653;28;20467;-70
2023/01/21 07:04:55;;;;;;;22.60;13.47;;;1.60;99.90;;;;;;5045975;28;20514;-71
2023/01/21 07:07:21;;;;;;;20.37;14.17;;;1.60;99.90;;;;;;5066939;28;22470;-71
2023/01/21 07:09:46;;;;;;;17.73;12.00;;;1.70;99.90;;;;;;5052391;28;20238;-69
2023/01/21 07:12:12;;;;;;;20.40;12.70;;;1.70;99.90;;;;;;5051438;28;20201;-69
2023/01/21 07:14:38;;;;;;;24.33;15.80;;;1.70;99.90;;;;;;5054196;28;20216;-70
2023/01/21 07:17:03;;;;;;;21.17;13.37;;;1.70;99.90;;;;;;5051982;28;20248;-69
2023/01/21 07:19:29;;;;;;;22.80;14.20;;;1.70;99.90;;;;;;5050973;28;20240;-68
2023/01/21 07:21:54;;;;;;;21.50;13.50;;;1.80;99.90;;;;;;5052507;28;20252;-69
2023/01/21 07:24:20;;;;;;;23.27;12.30;;;1.80;99.90;;;;;;5052017;28;20193;-71
2023/01/21 07:26:47;;;;;;;21.53;13.33;;;1.80;99.90;;;;;;5052666;28;20208;-70
2023/01/21 07:29:13;;;;;;;21.43;14.20;;;1.80;99.90;;;;;;5047596;28;20175;-70
2023/01/21 07:31:38;;;;;;;19.47;12.83;;;1.90;99.90;;;;;;5052682;28;20449;-72
2023/01/21 07:34:04;;;;;;;36.47;20.47;;;1.90;99.90;;;;;;5044934;28;20465;-71
2023/01/21 07:36:30;;;;;;;21.20;13.33;;;1.90;99.90;;;;;;5052294;28;20175;-72
2023/01/21 07:38:55;;;;;;;16.37;11.40;;;1.90;99.90;;;;;;5052776;28;20715;-72
2023/01/21 07:41:21;;;;;;;18.43;12.63;;;1.90;99.90;;;;;;5052846;28;20237;-72
2023/01/21 07:43:47;;;;;;;16.93;11.23;;;2.00;99.90;;;;;;5049763;28;20198;-71
2023/01/21 07:46:15;;;;;;;23.40;14.30;;;2.00;99.90;;;;;;5050017;28;20417;-70
2023/01/21 07:48:41;;;;;;;17.90;12.53;;;2.10;99.90;;;;;;5052285;28;20456;-70
2023/01/21 07:51:07;;;;;;;22.03;14.00;;;2.10;99.90;;;;;;5051065;28;20436;-70
2023/01/21 07:53:33;;;;;;;23.67;13.97;;;2.20;99.90;;;;;;5051294;28;20200;-70
2023/01/21 07:56:06;;;;;;;20.17;12.23;;;2.20;99.90;;;;;;5054360;28;20175;-70
2023/01/21 07:58:32;;;;;;;24.27;12.53;;;2.20;99.90;;;;;;5053091;28;20176;-70
2023/01/21 08:00:57;;;;;;;22.10;12.80;;;2.30;99.90;;;;;;5052217;28;20826;-72
2023/01/21 08:03:24;;;;;;;21.73;13.37;;;2.30;99.90;;;;;;5050230;28;20435;-72
2023/01/21 08:05:51;;;;;;;26.47;12.03;;;2.30;99.90;;;;;;5050998;28;20175;-72
2023/01/21 08:08:17;;;;;;;18.77;12.43;;;2.30;99.90;;;;;;5048334;28;20438;-71
2023/01/21 08:10:43;;;;;;;21.83;13.03;;;2.40;99.90;;;;;;5054462;28;20425;-70
2023/01/21 08:13:08;;;;;;;22.00;13.03;;;2.40;99.90;;;;;;5041614;28;21280;-72
2023/01/21 08:15:34;;;;;;;21.67;12.83;;;2.40;99.90;;;;;;5052914;28;20821;-73
2023/01/21 08:18:00;;;;;;;24.00;12.83;;;2.40;99.90;;;;;;5047994;28;20195;-71
2023/01/21 08:20:25;;;;;;;23.20;13.43;;;2.50;99.90;;;;;;5048917;28;20406;-71
2023/01/21 08:22:51;;;;;;;21.67;12.00;;;2.50;99.90;;;;;;5051679;28;20210;-71
2023/01/21 08:25:17;;;;;;;22.03;12.90;;;2.50;99.90;;;;;;5051637;28;20469;-72
2023/01/21 08:27:43;;;;;;;23.77;14.83;;;2.60;99.90;;;;;;5056057;28;20183;-72
2023/01/21 08:30:09;;;;;;;28.00;16.00;;;2.70;99.90;;;;;;5050535;28;20426;-73
2023/01/21 08:32:35;;;;;;;26.27;14.13;;;2.80;99.90;;;;;;5055538;28;20475;-74
2023/01/21 08:35:00;;;;;;;17.60;11.90;;;2.90;99.90;;;;;;5049885;28;20438;-73
2023/01/21 08:37:26;;;;;;;15.80;10.80;;;2.90;99.90;;;;;;5048493;28;20199;-70
2023/01/21 08:39:51;;;;;;;17.60;11.13;;;3.00;99.90;;;;;;5048263;28;20179;-69
2023/01/21 08:42:17;;;;;;;22.63;12.40;;;3.00;99.90;;;;;;5046597;28;20287;-71
2023/01/21 08:44:44;;;;;;;18.00;10.80;;;3.00;99.90;;;;;;5043759;28;20221;-70
2023/01/21 08:47:10;;;;;;;19.17;12.07;;;3.10;99.90;;;;;;5041047;28;20196;-69
2023/01/21 08:49:36;;;;;;;17.47;10.87;;;3.10;99.90;;;;;;5050102;28;20491;-70
2023/01/21 08:52:01;;;;;;;18.90;11.37;;;3.10;99.90;;;;;;5026575;28;20219;-71
2023/01/21 08:54:27;;;;;;;19.67;11.03;;;3.10;99.90;;;;;;5048090;28;20214;-71
2023/01/21 08:56:52;;;;;;;19.60;12.17;;;3.10;99.90;;;;;;5046590;28;20176;-70
2023/01/21 08:59:26;;;;;;;16.87;10.37;;;3.10;99.90;;;;;;5050029;28;20183;-68
2023/01/21 09:01:52;;;;;;;20.23;12.03;;;3.10;99.90;;;;;;5046008;28;20204;-71
2023/01/21 09:04:17;;;;;;;18.40;11.63;;;3.20;99.90;;;;;;5066290;28;20447;-70
2023/01/21 09:06:43;;;;;;;24.63;12.60;;;3.20;99.90;;;;;;5048376;28;20673;-70
2023/01/21 09:09:10;;;;;;;16.30;10.63;;;3.20;99.90;;;;;;5045901;28;20190;-69
2023/01/21 09:11:36;;;;;;;21.70;12.50;;;3.30;99.90;;;;;;5046596;28;20257;-70
2023/01/21 09:14:02;;;;;;;16.20;11.07;;;3.30;99.90;;;;;;5044581;28;20453;-69
2023/01/21 09:16:30;;;;;;;17.40;11.10;;;3.30;99.90;;;;;;5046170;28;20279;-69
2023/01/21 09:18:57;;;;;;;23.67;12.43;;;3.40;99.90;;;;;;5043613;28;20445;-69
2023/01/21 09:21:22;;;;;;;19.77;11.77;;;3.40;99.90;;;;;;5049757;28;20519;-71
2023/01/21 09:23:48;;;;;;;18.77;13.20;;;3.40;99.90;;;;;;5043664;28;20434;-68
2023/01/21 09:26:19;;;;;;;21.30;14.07;;;3.40;99.90;;;;;;5044592;28;20336;-69
2023/01/21 09:28:50;;;;;;;18.70;12.97;;;3.40;99.90;;;;;;5079681;28;20167;-70
2023/01/21 09:31:17;;;;;;;19.90;12.13;;;3.40;99.90;;;;;;5043980;28;20453;-72
2023/01/21 09:33:45;;;;;;;26.93;13.73;;;3.40;99.90;;;;;;5048815;28;20472;-71
2023/01/21 09:36:18;;;;;;;21.97;13.50;;;3.30;99.90;;;;;;5047246;28;20438;-69
2023/01/21 09:38:44;;;;;;;19.60;12.17;;;3.30;99.90;;;;;;5051423;28;20414;-70
2023/01/21 09:41:37;;;;;;;20.63;13.47;;;3.30;99.90;;;;;;5043930;28;22323;-70
2023/01/21 09:44:36;;;;;;;22.67;13.27;;;3.30;99.90;;;;;;5045647;28;20473;-70
2023/01/21 09:47:35;;;;;;;21.47;13.53;;;3.30;99.90;;;;;;5045087;28;20429;-69
2023/01/21 09:50:12;;;;;;;20.43;12.40;;;3.40;99.90;;;;;;5047478;28;20493;-71
2023/01/21 09:52:44;;;;;;;20.47;11.50;;;3.40;99.90;;;;;;5050272;28;20471;-67
2023/01/21 09:55:28;;;;;;;17.73;11.20;;;3.40;99.90;;;;;;5051172;28;22009;-67
2023/01/21 09:58:08;;;;;;;18.00;10.00;;;3.40;99.90;;;;;;5050944;28;20405;-71
2023/01/21 10:00:40;;;;;;;16.77;11.63;;;3.50;99.90;;;;;;5048225;28;21284;-69
2023/01/21 10:03:17;;;;;;;16.83;11.50;;;3.40;99.90;;;;;;5049136;28;20463;-69
2023/01/21 10:05:52;;;;;;;17.17;12.23;;;3.50;99.90;;;;;;5052190;28;20420;-71
2023/01/21 10:08:23;;;;;;;19.50;12.40;;;3.60;99.90;;;;;;5049478;28;20436;-69
2023/01/21 10:11:26;;;;;;;17.73;12.50;;;3.60;99.90;;;;;;5054273;28;20498;-69
2023/01/21 10:14:33;;;;;;;19.23;11.60;;;3.70;99.90;;;;;;5063761;28;20478;-69
2023/01/21 10:17:17;;;;;;;22.77;13.57;;;3.70;99.90;;;;;;5039950;28;20437;-69
2023/01/21 10:19:59;;;;;;;22.80;14.13;;;3.70;99.90;;;;;;5045970;28;20746;-70
2023/01/21 10:22:27;;;;;;;21.80;13.60;;;3.70;99.90;;;;;;5052521;28;20433;-70
2023/01/21 10:25:00;;;;;;;23.23;14.73;;;3.70;99.90;;;;;;5051025;28;20471;-70
2023/01/21 10:27:27;;;;;;;21.97;13.83;;;3.70;99.90;;;;;;5047413;28;20443;-69
2023/01/21 10:29:58;;;;;;;24.00;15.70;;;3.70;99.90;;;;;;5052162;28;20425;-70
2023/01/21 10:32:25;;;;;;;20.70;13.60;;;3.80;99.90;;;;;;5049771;28;20874;-68
2023/01/21 10:34:53;;;;;;;21.60;14.70;;;3.80;99.90;;;;;;5051165;28;20569;-69
2023/01/21 10:37:25;;;;;;;23.87;16.50;;;3.80;99.90;;;;;;5050054;28;20422;-71
2023/01/21 10:40:16;;;;;;;25.10;16.47;;;3.70;99.90;;;;;;5050107;28;20433;-69
2023/01/21 10:43:02;;;;;;;25.30;15.60;;;3.80;99.90;;;;;;5049748;28;21029;-70
2023/01/21 10:45:38;;;;;;;29.03;16.87;;;3.90;99.90;;;;;;5045457;28;20437;-69
2023/01/21 10:48:20;;;;;;;26.13;16.00;;;3.90;99.90;;;;;;5044191;28;20449;-72
2023/01/21 10:50:57;;;;;;;22.37;15.37;;;3.90;99.90;;;;;;5046829;28;21063;-68
2023/01/21 10:53:51;;;;;;;29.60;18.73;;;4.00;99.90;;;;;;5046483;28;20457;-69
2023/01/21 10:56:55;;;;;;;24.37;15.10;;;4.10;99.90;;;;;;5049476;28;20436;-69
2023/01/21 10:59:26;;;;;;;26.83;17.33;;;4.10;99.90;;;;;;5043116;28;21219;-70
2023/01/21 11:02:08;;;;;;;25.47;17.10;;;4.10;99.90;;;;;;5042364;28;20441;-68
2023/01/21 11:04:38;;;;;;;23.00;15.67;;;4.10;99.90;;;;;;5044478;28;20433;-71
2023/01/21 11:07:07;;;;;;;24.57;17.07;;;4.20;99.90;;;;;;5044059;28;20444;-69
2023/01/21 11:09:40;;;;;;;27.03;16.23;;;4.20;99.90;;;;;;5047724;28;21450;-71
2023/01/21 11:12:10;;;;;;;28.53;17.27;;;4.10;99.90;;;;;;5045493;28;20825;-72
2023/01/21 11:14:36;;;;;;;26.80;16.17;;;4.10;99.90;;;;;;5050652;28;20671;-70
2023/01/21 11:17:02;;;;;;;26.57;17.40;;;4.20;99.90;;;;;;5040898;28;20437;-67
2023/01/21 11:19:29;;;;;;;21.80;15.20;;;4.20;99.90;;;;;;5043681;28;20682;-70
2023/01/21 11:21:59;;;;;;;23.10;16.37;;;4.30;99.90;;;;;;5049137;28;20449;-69
2023/01/21 11:24:26;;;;;;;22.77;15.90;;;4.30;99.90;;;;;;5051916;28;20429;-68
2023/01/21 11:26:54;;;;;;;25.50;16.40;;;4.30;99.90;;;;;;5050284;28;20532;-68
2023/01/21 11:29:21;;;;;;;27.97;15.73;;;4.30;99.90;;;;;;5049686;28;20487;-68
2023/01/21 11:32:10;;;;;;;24.50;16.80;;;4.30;99.90;;;;;;5051590;28;20615;-68
2023/01/21 11:34:46;;;;;;;23.13;15.53;;;4.30;99.90;;;;;;5049952;28;20496;-68
2023/01/21 11:37:23;;;;;;;25.07;16.83;;;4.20;99.90;;;;;;5050389;28;20511;-68
2023/01/21 11:40:04;;;;;;;26.57;15.73;;;4.30;99.90;;;;;;5048381;28;20436;-66
2023/01/21 11:42:30;;;;;;;26.83;15.83;;;4.20;99.90;;;;;;5048724;28;20822;-68
2023/01/21 11:45:00;;;;;;;23.80;16.27;;;4.20;99.90;;;;;;5047389;28;20973;-67
2023/01/21 11:47:37;;;;;;;29.70;16.73;;;4.10;99.90;;;;;;5048386;28;20183;-67
2023/01/21 11:50:24;;;;;;;26.87;16.80;;;4.00;99.90;;;;;;5053375;28;20444;-67
2023/01/21 11:53:05;;;;;;;27.23;16.53;;;3.90;99.90;;;;;;5046566;28;20453;-67
2023/01/21 11:55:38;;;;;;;27.77;17.00;;;4.00;99.90;;;;;;5048747;28;20424;-67
2023/01/21 11:58:04;;;;;;;30.13;17.70;;;4.00;99.90;;;;;;5048473;28;20425;-67
2023/01/21 12:00:32;;;;;;;29.60;18.00;;;4.00;99.90;;;;;;5050699;28;20453;-67
2023/01/21 12:03:01;;;;;;;30.93;19.37;;;4.10;99.90;;;;;;5050208;28;20433;-68
2023/01/21 12:05:32;;;;;;;26.03;16.50;;;4.00;99.90;;;;;;5048262;28;20526;-67
2023/01/21 12:07:59;;;;;;;28.17;16.90;;;3.80;99.90;;;;;;5045738;28;20785;-67
2023/01/21 12:10:30;;;;;;;27.13;17.13;;;3.80;99.90;;;;;;5045243;28;20434;-67
2023/01/21 12:12:55;;;;;;;25.27;17.30;;;3.70;99.90;;;;;;5049958;28;20428;-67
2023/01/21 12:15:51;;;;;;;28.50;17.87;;;3.70;99.90;;;;;;5048505;28;21133;-67
2023/01/21 12:18:33;;;;;;;26.77;16.63;;;3.60;99.90;;;;;;5008835;28;20195;-66
2023/01/21 12:21:30;;;;;;;27.30;17.40;;;3.60;99.90;;;;;;5047849;28;20463;-67
2023/01/21 12:24:33;;;;;;;35.00;17.17;;;3.60;99.90;;;;;;5047939;28;20422;-67
2023/01/21 12:26:58;;;;;;;31.03;18.90;;;3.50;99.90;;;;;;5051622;28;20470;-67
2023/01/21 12:29:52;;;;;;;28.73;17.57;;;3.50;99.90;;;;;;5051729;28;20473;-68
2023/01/21 12:32:39;;;;;;;33.07;18.00;;;3.50;99.90;;;;;;5046448;28;20230;-69
2023/01/21 12:35:12;;;;;;;27.10;18.63;;;3.40;99.90;;;;;;5045191;28;20469;-67
2023/01/21 12:37:48;;;;;;;31.97;18.17;;;3.40;99.90;;;;;;5046805;28;20429;-68
2023/01/21 12:40:38;;;;;;;29.20;16.70;;;3.40;99.90;;;;;;5046290;28;20527;-69
2023/01/21 12:43:12;;;;;;;30.60;17.30;;;3.40;99.90;;;;;;5045009;28;20437;-70
2023/01/21 12:45:47;;;;;;;28.97;15.37;;;3.30;99.90;;;;;;5048328;28;20433;-72
2023/01/21 12:48:34;;;;;;;25.35;16.48;;;3.30;99.90;;;;;;5041107;28;20492;-68
2023/01/21 12:51:10;;;;;;;35.40;18.90;;;3.20;99.90;;;;;;5046866;28;20533;-67
2023/01/21 12:54:08;;;;;;;28.20;16.47;;;3.20;99.90;;;;;;5048313;28;20991;-72
2023/01/21 12:56:41;;;;;;;27.57;17.10;;;3.20;99.90;;;;;;5047334;28;20451;-67
2023/01/21 12:59:06;;;;;;;30.20;18.10;;;3.20;99.90;;;;;;5043703;28;20425;-68
2023/01/21 13:01:43;;;;;;;26.60;17.50;;;3.30;99.90;;;;;;5066772;28;20457;-72